createdAt,value
2017-09-23T00:00:07.751Z,99.90
2017-09-23T00:02:34.770Z,99.90
2017-09-23T00:05:02.529Z,99.90
2017-09-23T00:07:30.499Z,99.90
2017-09-23T00:09:56.438Z,99.90
2017-09-23T00:12:26.357Z,99.90
2017-09-23T00:14:53.318Z,99.90
2017-09-23T00:17:21.267Z,99.90
2017-09-23T00:19:47.300Z,99.90
2017-09-23T00:22:13.330Z,99.90
2017-09-23T00:24:43.354Z,99.90
2017-09-23T00:27:09.285Z,99.90
2017-09-23T00:29:37.269Z,99.90
2017-09-23T00:32:08.839Z,99.90
2017-09-23T00:34:34.841Z,99.90
2017-09-23T00:37:05.680Z,99.90
2017-09-23T00:39:39.315Z,99.90
2017-09-23T00:42:11.041Z,99.90
2017-09-23T00:44:38.006Z,99.90
2017-09-23T00:47:12.234Z,99.90
2017-09-23T00:49:39.296Z,99.90
2017-09-23T00:52:07.238Z,99.90
2017-09-23T00:54:34.988Z,99.90
2017-09-23T00:57:01.020Z,99.90
2017-09-23T00:59:27.974Z,99.90
2017-09-23T01:01:54.030Z,99.90
2017-09-23T01:04:27.238Z,99.90
2017-09-23T01:06:53.226Z,99.90
2017-09-23T01:09:19.401Z,99.90
2017-09-23T01:11:45.390Z,99.90
2017-09-23T01:14:12.378Z,99.90
2017-09-23T01:16:41.945Z,99.90
2017-09-23T01:19:14.562Z,99.90
2017-09-23T01:21:43.340Z,99.90
2017-09-23T01:24:10.085Z,99.90
2017-09-23T01:26:36.843Z,99.90
2017-09-23T01:29:04.702Z,99.90
2017-09-23T01:31:30.649Z,99.90
2017-09-23T01:34:00.440Z,99.90
2017-09-23T01:36:30.796Z,99.90
2017-09-23T01:38:57.542Z,99.90
2017-09-23T01:41:25.498Z,99.90
2017-09-23T01:43:52.197Z,99.90
2017-09-23T01:46:21.943Z,99.90
2017-09-23T01:48:49.973Z,99.90
2017-09-23T01:51:17.998Z,99.90
2017-09-23T01:53:49.391Z,99.90
2017-09-23T01:56:20.076Z,99.90
2017-09-23T01:58:46.102Z,99.90
2017-09-23T02:01:12.049Z,99.90
2017-09-23T02:03:40.010Z,99.90
2017-09-23T02:06:05.937Z,99.90
2017-09-23T02:08:36.164Z,99.90
2017-09-23T02:11:02.941Z,99.90
2017-09-23T02:13:29.963Z,99.90
2017-09-23T02:15:57.938Z,99.90
2017-09-23T02:18:25.935Z,99.90
2017-09-23T02:20:51.959Z,99.90
2017-09-23T02:23:19.720Z,99.90
2017-09-23T02:25:50.652Z,99.90
2017-09-23T02:28:16.693Z,99.90
2017-09-23T02:30:43.422Z,99.90
2017-09-23T02:33:09.450Z,99.90
2017-09-23T02:35:44.413Z,99.90
2017-09-23T02:38:12.365Z,99.90
2017-09-23T02:40:39.105Z,99.90
2017-09-23T02:43:06.062Z,99.90
2017-09-23T02:45:32.081Z,99.90
2017-09-23T02:48:01.790Z,99.90
2017-09-23T02:50:27.879Z,99.90
2017-09-23T02:52:54.904Z,99.90
2017-09-23T02:55:21.630Z,99.90
2017-09-23T02:57:51.530Z,99.90
2017-09-23T03:00:28.537Z,99.90
2017-09-23T03:02:59.257Z,99.90
2017-09-23T03:05:26.261Z,99.90
2017-09-23T03:07:52.249Z,99.90
2017-09-23T03:10:21.525Z,99.90
2017-09-23T03:12:49.539Z,99.90
2017-09-23T03:15:17.317Z,99.90
2017-09-23T03:17:44.239Z,99.90
2017-09-23T03:20:12.267Z,99.90
2017-09-23T03:22:46.678Z,99.90
2017-09-23T03:25:12.662Z,99.90
2017-09-23T03:27:43.099Z,99.90
2017-09-23T03:30:14.445Z,99.90
2017-09-23T03:32:40.493Z,99.90
2017-09-23T03:35:07.247Z,99.90
2017-09-23T03:37:34.306Z,99.90
2017-09-23T03:40:00.301Z,99.90
2017-09-23T03:42:31.334Z,99.90
2017-09-23T03:44:57.429Z,99.90
2017-09-23T03:47:28.322Z,99.90
2017-09-23T03:50:05.724Z,99.90
2017-09-23T03:52:34.517Z,99.90
2017-09-23T03:55:08.558Z,99.90
2017-09-23T03:57:34.563Z,99.90
2017-09-23T04:00:01.633Z,99.90
2017-09-23T04:02:28.648Z,99.90
2017-09-23T04:04:58.730Z,99.90
2017-09-23T04:07:28.179Z,99.90
2017-09-23T04:09:54.844Z,99.90
2017-09-23T04:12:22.797Z,99.90
2017-09-23T04:14:53.016Z,99.90
2017-09-23T04:17:20.809Z,99.90
2017-09-23T04:20:04.977Z,99.90
2017-09-23T04:22:31.979Z,99.90
2017-09-23T04:24:58.006Z,99.90
2017-09-23T04:27:24.043Z,99.90
2017-09-23T04:29:50.750Z,99.90
2017-09-23T04:32:20.809Z,99.90
2017-09-23T04:34:48.572Z,99.90
2017-09-23T04:37:15.509Z,99.90
2017-09-23T04:39:41.438Z,99.90
2017-09-23T04:42:07.490Z,99.90
2017-09-23T04:44:34.230Z,99.90
2017-09-23T04:47:02.950Z,99.90
2017-09-23T04:49:33.134Z,99.90
2017-09-23T04:52:16.509Z,99.90
2017-09-23T04:54:43.512Z,99.90
2017-09-23T04:57:13.745Z,99.90
2017-09-23T04:59:48.292Z,99.90
2017-09-23T05:02:15.016Z,99.90
2017-09-23T05:04:44.376Z,99.90
2017-09-23T05:07:10.339Z,99.90
2017-09-23T05:09:36.300Z,99.90
2017-09-23T05:12:04.026Z,99.90
2017-09-23T05:14:29.972Z,99.90
2017-09-23T05:16:56.129Z,99.90
2017-09-23T05:19:25.849Z,99.90
2017-09-23T05:21:55.526Z,99.90
2017-09-23T05:24:21.566Z,99.90
2017-09-23T05:26:50.783Z,99.90
2017-09-23T05:29:17.530Z,99.90
2017-09-23T05:31:50.622Z,99.90
2017-09-23T05:34:29.290Z,99.90
2017-09-23T05:36:59.495Z,99.90
2017-09-23T05:39:25.435Z,99.90
2017-09-23T05:41:54.827Z,99.90
2017-09-23T05:44:22.873Z,99.90
2017-09-23T05:46:57.532Z,99.90
2017-09-23T05:49:29.129Z,99.90
2017-09-23T05:51:59.551Z,99.90
2017-09-23T05:54:33.263Z,99.90
2017-09-23T05:56:59.351Z,99.90
2017-09-23T05:59:41.351Z,99.90
2017-09-23T06:02:08.383Z,99.90
2017-09-23T06:04:35.422Z,99.90
2017-09-23T06:07:01.431Z,99.90
2017-09-23T06:09:27.386Z,99.90
2017-09-23T06:11:53.425Z,99.90
2017-09-23T06:14:19.377Z,99.90
2017-09-23T06:16:51.926Z,99.90
2017-09-23T06:19:18.949Z,99.90
2017-09-23T06:21:44.896Z,99.90
2017-09-23T06:24:12.014Z,99.90
2017-09-23T06:26:42.489Z,99.90
2017-09-23T06:29:09.973Z,99.90
2017-09-23T06:31:36.052Z,99.90
2017-09-23T06:34:02.797Z,99.90
2017-09-23T06:36:28.840Z,99.90
2017-09-23T06:38:59.176Z,99.90
2017-09-23T06:41:25.133Z,99.90
2017-09-23T06:43:53.142Z,99.90
2017-09-23T06:46:19.185Z,99.90
2017-09-23T06:48:51.278Z,99.90
2017-09-23T06:51:20.981Z,99.90
2017-09-23T06:53:51.306Z,99.90
2017-09-23T06:56:20.098Z,99.90
2017-09-23T06:58:50.214Z,99.90
2017-09-23T07:01:27.556Z,99.90
2017-09-23T07:03:57.112Z,99.90
2017-09-23T07:06:24.903Z,99.90
2017-09-23T07:08:50.932Z,99.90
2017-09-23T07:11:17.979Z,99.90
2017-09-23T07:13:45.726Z,99.90
2017-09-23T07:16:19.981Z,99.90
2017-09-23T07:18:49.585Z,99.90
2017-09-23T07:21:21.943Z,99.90
2017-09-23T07:23:48.678Z,99.90
2017-09-23T07:26:15.346Z,99.90
2017-09-23T07:28:53.546Z,99.90
2017-09-23T07:31:24.089Z,99.90
2017-09-23T07:33:57.450Z,99.90
2017-09-23T07:36:36.218Z,99.90
2017-09-23T07:39:03.206Z,99.90
2017-09-23T07:41:34.159Z,99.90
2017-09-23T07:44:00.101Z,99.90
2017-09-23T07:46:27.841Z,99.90
2017-09-23T07:48:53.778Z,99.90
2017-09-23T07:51:20.725Z,99.90
2017-09-23T07:53:46.853Z,99.90
2017-09-23T07:56:12.803Z,99.90
2017-09-23T07:58:39.565Z,99.90
2017-09-23T08:01:06.396Z,99.90
2017-09-23T08:03:33.138Z,99.90
2017-09-23T08:06:00.082Z,99.90
2017-09-23T08:08:27.048Z,99.90
2017-09-23T08:10:54.825Z,99.90
2017-09-23T08:13:21.630Z,99.90
2017-09-23T08:15:47.639Z,99.90
2017-09-23T08:18:14.639Z,99.90
2017-09-23T08:20:44.776Z,99.90
2017-09-23T08:23:20.334Z,99.90
2017-09-23T08:26:03.890Z,99.90
2017-09-23T08:28:37.453Z,99.90
2017-09-23T08:31:15.170Z,99.90
2017-09-23T08:33:42.190Z,99.90
2017-09-23T08:36:13.182Z,99.90
2017-09-23T08:38:41.274Z,99.90
2017-09-23T08:41:07.261Z,99.90
2017-09-23T08:43:36.546Z,99.90
2017-09-23T08:46:11.399Z,99.90
2017-09-23T08:48:49.853Z,99.90
2017-09-23T08:51:19.492Z,99.90
2017-09-23T08:53:46.295Z,99.80
2017-09-23T08:56:17.893Z,99.60
2017-09-23T08:58:50.501Z,98.70
2017-09-23T09:01:31.182Z,99.70
2017-09-23T09:04:02.198Z,98.20
2017-09-23T09:06:39.902Z,96.80
2017-09-23T09:09:14.421Z,97.20
2017-09-23T09:11:41.098Z,95.30
2017-09-23T09:14:22.698Z,95.30
2017-09-23T09:16:54.396Z,94.90
2017-09-23T09:19:26.769Z,93.00
2017-09-23T09:21:55.425Z,92.20
2017-09-23T09:24:33.782Z,92.20
2017-09-23T09:27:08.317Z,91.20
2017-09-23T09:29:45.729Z,91.20
2017-09-23T09:32:11.691Z,91.20
2017-09-23T09:34:46.694Z,91.20
2017-09-23T09:37:12.657Z,90.50
2017-09-23T09:39:38.600Z,89.60
2017-09-23T09:42:10.341Z,88.40
2017-09-23T09:44:44.080Z,88.40
2017-09-23T09:47:14.550Z,88.20
2017-09-23T09:49:56.013Z,87.10
2017-09-23T09:52:29.763Z,87.80
2017-09-23T09:54:55.926Z,85.70
2017-09-23T09:57:28.542Z,83.90
2017-09-23T09:59:59.821Z,83.90
2017-09-23T10:02:25.965Z,84.10
2017-09-23T10:04:54.020Z,82.00
2017-09-23T10:07:22.052Z,83.70
2017-09-23T10:09:55.334Z,82.40
2017-09-23T10:12:21.341Z,83.80
2017-09-23T10:14:47.400Z,79.90
2017-09-23T10:17:20.493Z,80.80
2017-09-23T10:19:46.684Z,78.40
2017-09-23T10:22:12.731Z,76.30
2017-09-23T10:24:39.482Z,74.80
2017-09-23T10:27:06.240Z,75.60
2017-09-23T10:29:33.290Z,75.60
2017-09-23T10:32:01.042Z,77.90
2017-09-23T10:34:38.457Z,75.00
2017-09-23T10:37:06.519Z,75.00
2017-09-23T10:39:34.397Z,73.30
2017-09-23T10:42:01.430Z,73.20
2017-09-23T10:44:28.109Z,74.40
2017-09-23T10:47:04.559Z,74.40
2017-09-23T10:49:38.906Z,75.40
2017-09-23T10:52:15.494Z,75.40
2017-09-23T10:54:45.062Z,72.90
2017-09-23T10:57:16.385Z,70.80
2017-09-23T10:59:49.227Z,74.50
2017-09-23T11:02:19.080Z,73.50
2017-09-23T11:04:45.154Z,72.60
2017-09-23T11:07:17.782Z,71.80
2017-09-23T11:09:43.836Z,72.50
2017-09-23T11:12:13.646Z,73.20
2017-09-23T11:14:40.358Z,68.40
2017-09-23T11:17:06.392Z,67.40
2017-09-23T11:19:36.146Z,69.30
2017-09-23T11:22:06.838Z,66.90
2017-09-23T11:24:50.262Z,66.90
2017-09-23T11:27:31.524Z,67.10
2017-09-23T11:30:01.386Z,65.50
2017-09-23T11:32:27.316Z,66.20
2017-09-23T11:34:53.341Z,68.70
2017-09-23T11:37:23.764Z,69.10
2017-09-23T11:39:51.747Z,69.60
2017-09-23T11:42:17.830Z,68.00
2017-09-23T11:44:43.897Z,69.00
2017-09-23T11:47:10.010Z,62.00
2017-09-23T11:49:38.023Z,64.30
2017-09-23T11:52:04.755Z,62.70
2017-09-23T11:54:34.678Z,62.70
2017-09-23T11:57:09.010Z,62.60
2017-09-23T11:59:39.635Z,67.00
2017-09-23T12:02:18.082Z,69.40
2017-09-23T12:04:47.663Z,69.40
2017-09-23T12:07:15.437Z,74.40
2017-09-23T12:09:57.347Z,75.80
2017-09-23T12:12:27.167Z,75.70
2017-09-23T12:14:55.207Z,76.30
2017-09-23T12:17:32.016Z,76.80
2017-09-23T12:20:00.046Z,78.60
2017-09-23T12:22:25.974Z,79.40
2017-09-23T12:24:52.006Z,78.50
2017-09-23T12:27:18.133Z,78.90
2017-09-23T12:32:36.816Z,81.20
2017-09-23T12:35:11.451Z,82.50
2017-09-23T12:37:46.812Z,83.00
2017-09-23T12:40:16.400Z,83.00
2017-09-23T12:42:53.809Z,83.70
2017-09-23T12:45:27.185Z,83.60
2017-09-23T12:47:58.035Z,83.80
2017-09-23T12:50:35.634Z,84.10
2017-09-23T12:53:08.358Z,83.70
2017-09-23T12:55:36.390Z,83.50
2017-09-23T12:58:12.582Z,84.20
2017-09-23T13:00:38.549Z,81.20
2017-09-23T13:03:04.633Z,79.40
2017-09-23T13:05:34.690Z,78.20
2017-09-23T13:08:15.253Z,78.40
2017-09-23T13:10:42.274Z,78.40
2017-09-23T13:16:02.629Z,77.50
2017-09-23T13:18:40.053Z,75.80
2017-09-23T13:21:27.528Z,75.80
2017-09-23T13:23:53.575Z,74.60
2017-09-23T13:26:27.424Z,74.20
2017-09-23T13:29:07.865Z,74.20
2017-09-23T13:31:38.259Z,73.40
2017-09-23T13:34:22.600Z,71.70
2017-09-23T13:36:48.610Z,71.00
2017-09-23T13:39:26.853Z,68.80
2017-09-23T13:44:46.321Z,66.10
2017-09-23T13:47:16.645Z,68.50
2017-09-23T13:49:42.569Z,67.10
2017-09-23T13:52:08.594Z,66.40
2017-09-23T13:54:34.645Z,63.90
2017-09-23T13:57:12.223Z,60.20
2017-09-23T13:59:38.262Z,60.00
2017-09-23T14:02:15.264Z,62.10
2017-09-23T14:04:47.618Z,59.00
2017-09-23T14:07:18.173Z,59.50
2017-09-23T14:12:37.315Z,57.90
2017-09-23T14:15:14.070Z,58.00
2017-09-23T14:17:46.820Z,58.50
2017-09-23T14:20:13.885Z,57.10
2017-09-23T14:22:39.885Z,57.00
2017-09-23T14:25:08.662Z,58.80
2017-09-23T14:27:37.453Z,59.60
2017-09-23T14:30:06.118Z,59.30
2017-09-23T14:32:33.080Z,58.90
2017-09-23T14:34:59.103Z,58.50
2017-09-23T14:37:25.026Z,57.20
2017-09-23T14:39:54.890Z,56.70
2017-09-23T14:42:20.872Z,57.10
2017-09-23T14:44:46.918Z,55.90
2017-09-23T14:47:12.955Z,55.10
2017-09-23T14:49:39.753Z,54.90
2017-09-23T14:52:13.123Z,54.90
2017-09-23T14:54:39.187Z,54.90
2017-09-23T14:57:08.130Z,54.70
2017-09-23T14:59:38.869Z,55.40
2017-09-23T15:02:06.563Z,54.60
2017-09-23T15:04:39.721Z,54.60
2017-09-23T15:07:06.490Z,55.70
2017-09-23T15:09:32.434Z,55.70
2017-09-23T15:11:58.358Z,56.60
2017-09-23T15:14:24.275Z,58.40
2017-09-23T15:16:50.212Z,57.80
2017-09-23T15:19:16.229Z,58.00
2017-09-23T15:21:42.180Z,58.00
2017-09-23T15:24:08.096Z,58.50
2017-09-23T15:26:34.026Z,59.20
2017-09-23T15:28:59.966Z,59.80
2017-09-23T15:31:25.911Z,60.30
2017-09-23T15:33:51.855Z,60.40
2017-09-23T15:36:17.762Z,61.00
2017-09-23T15:38:43.753Z,62.00
2017-09-23T15:41:09.707Z,62.80
2017-09-23T15:43:35.661Z,62.40
2017-09-23T15:46:01.720Z,63.90
2017-09-23T15:48:30.509Z,64.50
2017-09-23T15:51:01.015Z,65.30
2017-09-23T15:53:26.958Z,65.30
2017-09-23T15:55:53.650Z,66.90
2017-09-23T15:58:19.569Z,67.50
2017-09-23T16:00:45.509Z,68.50
2017-09-23T16:03:11.425Z,68.00
2017-09-23T16:05:37.401Z,68.10
2017-09-23T16:08:03.345Z,68.00
2017-09-23T16:10:30.005Z,69.60
2017-09-23T16:12:57.672Z,72.10
2017-09-23T16:15:23.594Z,72.10
2017-09-23T16:18:03.783Z,71.90
2017-09-23T16:20:37.572Z,71.90
2017-09-23T16:23:07.450Z,71.80
2017-09-23T16:25:33.385Z,70.80
2017-09-23T16:28:03.494Z,72.10
2017-09-23T16:30:29.424Z,71.80
2017-09-23T16:32:55.382Z,73.20
2017-09-23T16:35:21.314Z,73.10
2017-09-23T16:37:47.275Z,74.20
2017-09-23T16:40:13.217Z,74.90
2017-09-23T16:42:39.898Z,75.80
2017-09-23T16:45:06.577Z,76.70
2017-09-23T16:47:32.525Z,76.70
2017-09-23T16:49:58.455Z,77.30
2017-09-23T16:52:24.398Z,78.50
2017-09-23T16:54:50.362Z,78.80
2017-09-23T16:57:20.571Z,81.10
2017-09-23T16:59:46.536Z,80.10
2017-09-23T17:02:12.515Z,81.20
2017-09-23T17:04:38.469Z,82.00
2017-09-23T17:07:05.126Z,83.00
2017-09-23T17:09:31.073Z,83.00
2017-09-23T17:11:57.042Z,83.00
2017-09-23T17:14:23.004Z,83.40
2017-09-23T17:16:48.954Z,83.50
2017-09-23T17:19:14.956Z,84.20
2017-09-23T17:21:40.962Z,84.30
2017-09-23T17:24:07.815Z,87.50
2017-09-23T17:26:33.761Z,87.10
2017-09-23T17:29:02.542Z,87.80
2017-09-23T17:31:29.303Z,88.20
2017-09-23T17:33:55.257Z,88.20
2017-09-23T17:36:21.228Z,88.40
2017-09-23T17:38:47.207Z,88.60
2017-09-23T17:41:13.181Z,89.30
2017-09-23T17:43:40.162Z,90.00
2017-09-23T17:46:06.093Z,90.20
2017-09-23T17:48:32.017Z,90.10
2017-09-23T17:50:57.963Z,90.70
2017-09-23T17:53:23.958Z,90.40
2017-09-23T17:55:50.678Z,90.90
2017-09-23T17:58:16.673Z,90.90
2017-09-23T18:00:42.610Z,90.80
2017-09-23T18:03:08.656Z,91.20
2017-09-23T18:05:35.373Z,91.70
2017-09-23T18:08:01.334Z,91.70
2017-09-23T18:10:28.333Z,91.10
2017-09-23T18:12:54.295Z,91.10
2017-09-23T18:15:20.330Z,91.30
2017-09-23T18:17:46.286Z,91.40
2017-09-23T18:20:12.240Z,91.70
2017-09-23T18:22:46.478Z,91.80
2017-09-23T18:25:13.278Z,92.40
2017-09-23T18:27:39.240Z,92.70
2017-09-23T18:30:05.217Z,93.20
2017-09-23T18:32:31.169Z,93.20
2017-09-23T18:34:57.888Z,93.90
2017-09-23T18:37:23.866Z,93.80
2017-09-23T18:39:49.810Z,93.90
2017-09-23T18:42:15.784Z,94.10
2017-09-23T18:44:41.738Z,94.50
2017-09-23T18:47:08.422Z,94.90
2017-09-23T18:49:34.370Z,94.90
2017-09-23T18:52:00.383Z,95.10
2017-09-23T18:54:26.327Z,95.30
2017-09-23T18:56:52.277Z,95.40
2017-09-23T18:59:18.219Z,95.80
2017-09-23T19:01:44.930Z,96.10
2017-09-23T19:04:10.909Z,96.10
2017-09-23T19:06:36.918Z,96.30
2017-09-23T19:09:07.003Z,96.70
2017-09-23T19:11:32.965Z,96.70
2017-09-23T19:13:58.886Z,96.80
2017-09-23T19:16:27.593Z,97.10
2017-09-23T19:18:54.263Z,97.00
2017-09-23T19:21:34.414Z,97.00
2017-09-23T19:24:22.787Z,97.20
2017-09-23T19:26:56.321Z,97.40
2017-09-23T19:29:29.854Z,97.70
2017-09-23T19:32:15.368Z,97.70
2017-09-23T19:34:41.443Z,97.90
2017-09-23T19:37:08.491Z,98.20
2017-09-23T19:39:35.218Z,98.30
2017-09-23T19:42:05.641Z,98.40
2017-09-23T19:44:31.594Z,98.30
2017-09-23T19:47:04.578Z,98.70
2017-09-23T19:49:31.350Z,99.30
2017-09-23T19:51:58.409Z,99.30
2017-09-23T19:54:26.464Z,99.40
2017-09-23T19:56:53.485Z,99.50
2017-09-23T19:59:26.804Z,99.40
2017-09-23T20:01:54.585Z,99.60
2017-09-23T20:04:20.501Z,99.60
2017-09-23T20:07:00.777Z,99.50
2017-09-23T20:09:30.778Z,99.70
2017-09-23T20:11:56.773Z,99.80
2017-09-23T20:14:22.806Z,99.80
2017-09-23T20:17:05.969Z,99.90
2017-09-23T20:19:31.965Z,99.90
2017-09-23T20:22:01.998Z,99.90
2017-09-23T20:24:28.738Z,99.90
2017-09-23T20:26:58.845Z,99.90
2017-09-23T20:29:29.607Z,99.90
2017-09-23T20:31:56.453Z,99.90
2017-09-23T20:34:32.899Z,99.90
2017-09-23T20:37:05.449Z,99.90
2017-09-23T20:39:55.746Z,99.90
2017-09-23T20:42:21.827Z,99.90
2017-09-23T20:44:49.789Z,99.90
2017-09-23T20:47:15.870Z,99.90
2017-09-23T20:50:00.125Z,99.90
2017-09-23T20:52:43.610Z,99.90
2017-09-23T20:55:09.541Z,99.90
2017-09-23T20:57:35.577Z,99.90
2017-09-23T21:00:09.355Z,99.90
2017-09-23T21:03:01.226Z,99.90
2017-09-23T21:05:27.264Z,99.90
2017-09-23T21:08:00.551Z,99.90
2017-09-23T21:10:26.512Z,99.90
2017-09-23T21:12:58.018Z,99.90
2017-09-23T21:18:17.046Z,99.90
2017-09-23T21:21:08.618Z,99.90
2017-09-23T21:23:41.658Z,99.90
2017-09-23T21:26:09.718Z,99.90
2017-09-23T21:28:37.544Z,99.90
2017-09-23T21:31:06.801Z,99.90
2017-09-23T21:33:33.537Z,99.90
2017-09-23T21:36:03.594Z,99.90
2017-09-23T21:38:30.620Z,99.90
2017-09-23T21:40:57.370Z,99.90
2017-09-23T21:43:27.771Z,99.90
2017-09-23T21:45:53.926Z,99.90
2017-09-23T21:48:25.769Z,99.90
2017-09-23T21:50:55.084Z,99.90
2017-09-23T21:53:21.848Z,99.90
2017-09-23T21:55:47.926Z,99.90
2017-09-23T21:58:20.094Z,99.90
2017-09-23T22:00:47.091Z,99.90
2017-09-23T22:03:18.678Z,99.90
2017-09-23T22:05:55.459Z,99.90
2017-09-23T22:08:28.110Z,99.90
2017-09-23T22:11:00.680Z,99.90
2017-09-23T22:13:27.401Z,99.90
2017-09-23T22:16:05.941Z,99.90
2017-09-23T22:18:46.355Z,99.90
2017-09-23T22:21:12.405Z,99.90
2017-09-23T22:23:38.458Z,99.90
2017-09-23T22:29:02.442Z,99.90
2017-09-23T22:31:29.223Z,99.90
2017-09-23T22:34:02.446Z,99.90
2017-09-23T22:36:28.528Z,99.90
2017-09-23T22:38:54.566Z,99.90
2017-09-23T22:41:28.662Z,99.90
2017-09-23T22:44:08.230Z,99.90
2017-09-23T22:46:47.162Z,99.90
2017-09-23T22:49:18.567Z,99.90
2017-09-23T22:51:44.830Z,99.90
2017-09-23T22:54:14.926Z,99.90
2017-09-23T22:56:50.297Z,99.90
2017-09-23T22:59:23.829Z,99.90
2017-09-23T23:01:53.370Z,99.90
2017-09-23T23:04:20.039Z,99.90
2017-09-23T23:06:45.990Z,99.90
2017-09-23T23:09:11.987Z,99.90
2017-09-23T23:11:43.436Z,99.90
2017-09-23T23:14:09.449Z,99.90
2017-09-23T23:16:52.538Z,99.90
2017-09-23T23:19:22.074Z,99.90
2017-09-23T23:21:55.508Z,99.90
2017-09-23T23:24:28.898Z,99.90
2017-09-23T23:26:54.893Z,99.90
2017-09-23T23:29:20.987Z,99.90
2017-09-23T23:31:53.521Z,99.90
2017-09-23T23:34:20.221Z,99.90
2017-09-23T23:36:55.517Z,99.90
2017-09-23T23:39:33.927Z,99.90
2017-09-23T23:42:00.657Z,99.90
2017-09-23T23:44:27.325Z,99.90
2017-09-23T23:46:58.281Z,99.90
2017-09-23T23:49:32.601Z,99.90
2017-09-23T23:55:06.120Z,99.90
2017-09-23T23:57:36.126Z,99.90
